createdAt,value
2022-10-11T00:01:32.963Z,6.70
2022-10-11T00:03:59.798Z,6.28
2022-10-11T00:06:26.676Z,6.32
2022-10-11T00:08:54.827Z,7.25
2022-10-11T00:11:21.546Z,8.05
2022-10-11T00:13:48.514Z,6.85
2022-10-11T00:16:15.690Z,7.65
2022-10-11T00:18:42.899Z,6.90
2022-10-11T00:21:12.128Z,7.55
2022-10-11T00:23:39.007Z,7.18
2022-10-11T00:26:09.796Z,7.28
2022-10-11T00:28:37.180Z,7.32
2022-10-11T00:31:08.143Z,7.72
2022-10-11T00:33:35.320Z,7.30
2022-10-11T00:36:02.387Z,7.82
2022-10-11T00:38:31.669Z,7.05
2022-10-11T00:40:59.432Z,6.82
2022-10-11T00:43:30.583Z,7.63
2022-10-11T00:46:05.337Z,7.50
2022-10-11T00:48:39.749Z,6.78
2022-10-11T00:51:14.169Z,7.50
2022-10-11T00:53:41.737Z,7.10
2022-10-11T00:56:14.990Z,7.05
2022-10-11T00:58:44.036Z,5.90
2022-10-11T01:01:11.183Z,7.57
2022-10-11T01:03:40.526Z,7.28
2022-10-11T01:06:07.961Z,7.53
2022-10-11T01:08:34.988Z,6.90
2022-10-11T01:11:02.316Z,7.38
2022-10-11T01:13:41.949Z,7.28
2022-10-11T01:16:14.851Z,7.60
2022-10-11T01:18:49.625Z,6.53
2022-10-11T01:21:26.670Z,7.03
2022-10-11T01:24:15.063Z,6.90
2022-10-11T01:27:14.967Z,7.47
2022-10-11T01:29:50.037Z,7.20
2022-10-11T01:32:24.765Z,6.10
2022-10-11T01:34:58.712Z,6.35
2022-10-11T01:40:01.524Z,6.63
2022-10-11T01:42:29.881Z,6.38
2022-10-11T01:44:58.884Z,10.27
2022-10-11T01:47:27.231Z,8.00
2022-10-11T01:49:56.524Z,9.05
2022-10-11T01:52:24.137Z,7.82
2022-10-11T01:55:10.000Z,7.95
2022-10-11T01:58:07.878Z,7.68
2022-10-11T02:00:47.620Z,7.50
2022-10-11T02:03:24.893Z,6.78
2022-10-11T02:05:59.949Z,6.90
2022-10-11T02:08:38.380Z,7.57
2022-10-11T02:11:09.914Z,7.43
2022-10-11T02:13:41.168Z,6.32
2022-10-11T02:16:14.670Z,6.88
2022-10-11T02:18:47.094Z,7.07
2022-10-11T02:21:18.277Z,8.05
2022-10-11T02:23:50.172Z,7.40
2022-10-11T02:26:19.643Z,8.18
2022-10-11T02:28:48.317Z,7.38
2022-10-11T02:31:17.700Z,6.53
2022-10-11T02:33:50.370Z,7.43
2022-10-11T02:36:24.693Z,8.25
2022-10-11T02:38:58.813Z,7.60
2022-10-11T02:41:29.510Z,7.75
2022-10-11T02:44:01.818Z,8.05
2022-10-11T02:46:30.597Z,6.70
2022-10-11T02:48:59.794Z,6.15
2022-10-11T02:51:29.641Z,7.55
2022-10-11T02:53:56.422Z,6.30
2022-10-11T02:56:23.323Z,7.20
2022-10-11T02:58:50.163Z,7.57
2022-10-11T03:01:17.086Z,6.63
2022-10-11T03:03:43.907Z,8.65
2022-10-11T03:06:12.086Z,7.22
2022-10-11T03:08:38.864Z,7.18
2022-10-11T03:11:05.673Z,7.72
2022-10-11T03:13:32.464Z,7.82
2022-10-11T03:16:03.595Z,8.07
2022-10-11T03:18:34.422Z,7.30
2022-10-11T03:21:01.352Z,7.65
2022-10-11T03:23:29.587Z,7.47
2022-10-11T03:25:56.493Z,6.85
2022-10-11T03:28:23.367Z,7.70
2022-10-11T03:30:50.639Z,7.88
2022-10-11T03:33:17.592Z,7.30
2022-10-11T03:35:44.871Z,7.13
2022-10-11T03:38:13.250Z,7.32
2022-10-11T03:40:42.262Z,6.82
2022-10-11T03:43:09.574Z,6.72
2022-10-11T03:45:36.684Z,6.78
2022-10-11T03:48:03.865Z,5.30
2022-10-11T03:50:31.359Z,5.40
2022-10-11T03:52:58.354Z,6.97
2022-10-11T03:55:25.199Z,6.55
2022-10-11T03:57:53.546Z,5.93
2022-10-11T04:00:20.461Z,5.88
2022-10-11T04:02:47.276Z,6.55
2022-10-11T04:05:14.715Z,4.63
2022-10-11T04:07:41.657Z,5.25
2022-10-11T04:10:09.113Z,4.40
2022-10-11T04:12:37.445Z,4.57
2022-10-11T04:15:06.903Z,4.80
2022-10-11T04:17:34.320Z,5.65
2022-10-11T04:20:01.272Z,6.93
2022-10-11T04:22:28.105Z,7.28
2022-10-11T04:24:54.912Z,6.93
2022-10-11T04:27:21.747Z,5.47
2022-10-11T04:29:48.559Z,6.70
2022-10-11T04:32:16.689Z,6.38
2022-10-11T04:34:43.470Z,4.63
2022-10-11T04:37:10.301Z,5.18
2022-10-11T04:39:38.169Z,6.22
2022-10-11T04:42:05.077Z,5.75
2022-10-11T04:44:32.065Z,4.97
2022-10-11T04:46:58.861Z,5.45
2022-10-11T04:49:27.110Z,4.93
2022-10-11T04:51:54.141Z,4.40
2022-10-11T04:54:20.871Z,4.70
2022-10-11T04:56:47.619Z,5.20
2022-10-11T04:59:14.454Z,4.47
2022-10-11T05:01:41.278Z,4.10
2022-10-11T05:04:08.586Z,4.80
2022-10-11T05:06:36.693Z,3.75
2022-10-11T05:09:03.690Z,4.93
2022-10-11T05:11:30.591Z,4.68
2022-10-11T05:13:57.520Z,5.32
2022-10-11T05:16:25.178Z,4.53
2022-10-11T05:18:52.152Z,5.28
2022-10-11T05:21:21.347Z,7.22
2022-10-11T05:23:51.516Z,7.18
2022-10-11T05:26:19.579Z,5.50
2022-10-11T05:28:47.336Z,5.78
2022-10-11T05:31:14.430Z,5.00
2022-10-11T05:33:41.789Z,4.93
2022-10-11T05:36:09.766Z,5.95
2022-10-11T05:38:37.145Z,7.43
2022-10-11T05:41:06.169Z,5.80
2022-10-11T05:43:32.908Z,8.25
2022-10-11T05:45:59.768Z,10.27
2022-10-11T05:48:28.477Z,8.68
2022-10-11T05:50:59.438Z,9.07
2022-10-11T05:53:26.402Z,10.55
2022-10-11T05:55:53.196Z,8.52
2022-10-11T05:58:21.563Z,8.55
2022-10-11T06:00:48.363Z,9.38
2022-10-11T06:03:15.215Z,8.80
2022-10-11T06:05:42.346Z,9.20
2022-10-11T06:08:11.163Z,8.52
2022-10-11T06:10:38.765Z,8.80
2022-10-11T06:13:06.249Z,7.95
2022-10-11T06:15:34.816Z,7.40
2022-10-11T06:18:01.635Z,7.07
2022-10-11T06:20:28.563Z,8.38
2022-10-11T06:22:55.533Z,8.93
2022-10-11T06:25:22.327Z,6.80
2022-10-11T06:27:49.332Z,7.03
2022-10-11T06:30:16.321Z,7.82
2022-10-11T06:32:44.608Z,7.63
2022-10-11T06:35:11.642Z,7.25
2022-10-11T06:37:38.483Z,7.82
2022-10-11T06:40:06.301Z,7.50
2022-10-11T06:42:33.286Z,7.93
2022-10-11T06:45:00.266Z,7.13
2022-10-11T06:47:28.096Z,6.13
2022-10-11T06:49:56.428Z,6.68
2022-10-11T06:52:23.183Z,7.03
2022-10-11T06:54:50.038Z,8.02
2022-10-11T06:57:16.931Z,6.72
2022-10-11T06:59:43.719Z,8.07
2022-10-11T07:02:10.756Z,6.55
2022-10-11T07:04:37.717Z,6.70
2022-10-11T07:07:06.029Z,5.78
2022-10-11T07:09:34.698Z,6.43
2022-10-11T07:12:01.478Z,6.22
2022-10-11T07:14:28.716Z,6.57
2022-10-11T07:16:55.553Z,7.18
2022-10-11T07:19:22.453Z,8.35
2022-10-11T07:21:49.322Z,9.25
2022-10-11T07:24:17.662Z,9.30
2022-10-11T07:26:44.459Z,9.32
2022-10-11T07:29:12.144Z,8.73
2022-10-11T07:31:41.517Z,11.55
2022-10-11T07:34:08.596Z,21.05
2022-10-11T07:36:36.190Z,25.92
2022-10-11T07:39:04.225Z,19.98
2022-10-11T07:41:32.352Z,19.42
2022-10-11T07:43:59.259Z,22.83
2022-10-11T07:46:26.075Z,12.70
2022-10-11T07:48:52.997Z,11.18
2022-10-11T07:51:21.292Z,11.20
2022-10-11T07:53:49.940Z,14.30
2022-10-11T07:56:19.540Z,19.30
2022-10-11T07:58:51.682Z,16.27
2022-10-11T08:01:18.908Z,14.70
2022-10-11T08:03:45.693Z,10.07
2022-10-11T08:06:15.047Z,8.52
2022-10-11T08:08:41.872Z,9.48
2022-10-11T08:11:08.849Z,8.18
2022-10-11T08:13:35.960Z,8.02
2022-10-11T08:16:11.633Z,9.00
2022-10-11T08:18:38.680Z,8.98
2022-10-11T08:21:09.393Z,9.27
2022-10-11T08:23:36.349Z,8.25
2022-10-11T08:26:03.914Z,6.93
2022-10-11T08:28:31.066Z,6.60
2022-10-11T08:30:57.988Z,6.30
2022-10-11T08:33:26.919Z,6.60
2022-10-11T08:35:55.526Z,7.05
2022-10-11T08:38:22.468Z,7.05
2022-10-11T08:40:52.136Z,5.95
2022-10-11T08:43:30.087Z,9.20
2022-10-11T08:46:00.241Z,7.40
2022-10-11T08:48:34.570Z,7.82
2022-10-11T08:51:02.879Z,11.32
2022-10-11T08:53:46.150Z,22.10
2022-10-11T08:56:16.240Z,10.57
2022-10-11T08:58:48.269Z,13.88
2022-10-11T09:01:20.374Z,10.07
2022-10-11T09:03:49.997Z,9.05
2022-10-11T09:06:28.348Z,13.32
2022-10-11T09:09:28.034Z,9.90
2022-10-11T09:12:10.399Z,5.10
2022-10-11T09:14:58.168Z,7.60
2022-10-11T09:17:40.737Z,5.13
2022-10-11T09:20:36.136Z,4.90
2022-10-11T09:23:10.579Z,6.13
2022-10-11T09:25:44.391Z,5.43
2022-10-11T09:28:19.212Z,4.90
2022-10-11T09:30:48.922Z,5.70
2022-10-11T09:33:19.984Z,6.03
2022-10-11T09:35:50.662Z,4.97
2022-10-11T09:38:27.456Z,4.65
2022-10-11T09:41:06.937Z,3.72
2022-10-11T09:43:33.841Z,3.25
2022-10-11T09:46:00.692Z,3.30
2022-10-11T09:48:37.542Z,3.40
2022-10-11T09:51:12.193Z,3.85
2022-10-11T09:53:54.818Z,2.85
2022-10-11T09:56:23.256Z,1.90
2022-10-11T09:58:56.627Z,3.03
2022-10-11T10:01:25.429Z,3.67
2022-10-11T10:04:05.835Z,2.72
2022-10-11T10:06:34.112Z,3.08
2022-10-11T10:09:25.134Z,3.88
2022-10-11T10:11:52.331Z,3.25
2022-10-11T10:14:23.001Z,2.70
2022-10-11T10:16:59.329Z,3.38
2022-10-11T10:19:26.388Z,3.05
2022-10-11T10:21:56.188Z,3.15
2022-10-11T10:24:34.641Z,3.25
2022-10-11T10:27:21.115Z,2.03
2022-10-11T10:30:02.232Z,3.15
2022-10-11T10:32:36.140Z,3.55
2022-10-11T10:37:41.152Z,2.42
2022-10-11T10:40:10.269Z,2.00
2022-10-11T10:42:37.519Z,3.00
2022-10-11T10:45:12.137Z,2.10
2022-10-11T10:48:04.405Z,3.08
2022-10-11T10:50:47.451Z,2.92
2022-10-11T10:53:27.624Z,2.88
2022-10-11T10:56:00.970Z,2.38
2022-10-11T10:58:59.199Z,3.03
2022-10-11T11:01:29.158Z,2.45
2022-10-11T11:04:05.178Z,2.92
2022-10-11T11:06:38.361Z,3.17
2022-10-11T11:09:23.414Z,3.03
2022-10-11T11:12:02.890Z,2.58
2022-10-11T11:14:44.088Z,2.08
2022-10-11T11:17:22.683Z,3.67
2022-10-11T11:20:01.793Z,2.83
2022-10-11T11:22:39.314Z,3.00
2022-10-11T11:25:19.659Z,2.95
2022-10-11T11:28:01.368Z,2.88
2022-10-11T11:30:36.583Z,2.75
2022-10-11T11:33:11.940Z,2.92
2022-10-11T11:35:42.560Z,3.05
2022-10-11T11:38:16.635Z,2.33
2022-10-11T11:40:49.771Z,3.17
2022-10-11T11:43:22.877Z,2.83
2022-10-11T11:45:54.886Z,2.38
2022-10-11T11:48:27.373Z,2.38
2022-10-11T11:51:02.731Z,2.20
2022-10-11T11:53:43.330Z,2.50
2022-10-11T11:56:24.609Z,2.53
2022-10-11T11:58:59.694Z,1.60
2022-10-11T12:01:33.023Z,2.40
2022-10-11T12:04:05.234Z,2.42
2022-10-11T12:06:33.178Z,2.15
2022-10-11T12:09:04.193Z,2.97
2022-10-11T12:11:43.142Z,3.20
2022-10-11T12:14:28.379Z,3.22
2022-10-11T12:17:23.278Z,3.65
2022-10-11T12:20:12.148Z,4.10
2022-10-11T12:22:58.210Z,2.55
2022-10-11T12:25:35.665Z,2.92
2022-10-11T12:28:42.708Z,2.72
2022-10-11T12:31:23.532Z,2.60
2022-10-11T12:34:17.084Z,2.75
2022-10-11T12:36:45.321Z,3.28
2022-10-11T12:39:50.645Z,3.28
2022-10-11T12:42:35.983Z,2.47
2022-10-11T12:45:32.328Z,2.85
2022-10-11T12:48:22.746Z,2.33
2022-10-11T12:51:02.956Z,2.25
2022-10-11T12:54:14.721Z,2.42
2022-10-11T12:56:49.542Z,2.67
2022-10-11T12:59:19.423Z,2.40
2022-10-11T13:01:53.695Z,2.75
2022-10-11T13:04:25.371Z,3.03
2022-10-11T13:06:54.742Z,3.13
2022-10-11T13:09:28.812Z,2.97
2022-10-11T13:11:59.942Z,3.53
2022-10-11T13:14:29.406Z,3.03
2022-10-11T13:17:15.769Z,3.17
2022-10-11T13:19:42.900Z,2.78
2022-10-11T13:22:17.544Z,3.10
2022-10-11T13:24:44.434Z,2.90
2022-10-11T13:27:19.257Z,2.53
2022-10-11T13:29:47.898Z,2.95
2022-10-11T13:32:19.378Z,3.30
2022-10-11T13:34:49.451Z,3.30
2022-10-11T13:37:19.066Z,2.72
2022-10-11T13:39:46.846Z,3.22
2022-10-11T13:42:15.998Z,2.90
2022-10-11T13:44:44.502Z,2.80
2022-10-11T13:47:13.790Z,2.47
2022-10-11T13:49:45.767Z,3.13
2022-10-11T13:52:23.853Z,2.40
2022-10-11T13:54:56.260Z,2.85
2022-10-11T13:57:34.020Z,2.53
2022-10-11T14:00:02.658Z,2.60
2022-10-11T14:02:32.484Z,2.72
2022-10-11T14:05:00.747Z,2.67
2022-10-11T14:07:33.615Z,2.85
2022-10-11T14:10:00.522Z,3.17
2022-10-11T14:12:32.200Z,3.30
2022-10-11T14:14:59.860Z,2.65
2022-10-11T14:17:39.241Z,2.58
2022-10-11T14:20:21.972Z,2.95
2022-10-11T14:22:50.994Z,3.10
2022-10-11T14:25:17.844Z,2.70
2022-10-11T14:27:44.727Z,3.13
2022-10-11T14:30:31.839Z,2.90
2022-10-11T14:33:01.499Z,2.90
2022-10-11T14:35:32.357Z,2.20
2022-10-11T14:37:59.605Z,2.90
2022-10-11T14:40:29.629Z,2.97
2022-10-11T14:42:57.023Z,2.33
2022-10-11T14:45:23.990Z,2.70
2022-10-11T14:47:51.080Z,2.63
2022-10-11T14:50:27.457Z,3.13
2022-10-11T14:52:56.318Z,2.42
2022-10-11T14:55:24.688Z,2.67
2022-10-11T14:57:51.714Z,2.72
2022-10-11T15:00:22.316Z,2.53
2022-10-11T15:02:49.328Z,2.30
2022-10-11T15:05:16.315Z,2.42
2022-10-11T15:07:43.072Z,2.00
2022-10-11T15:10:19.628Z,2.25
2022-10-11T15:12:46.597Z,2.88
2022-10-11T15:15:19.735Z,2.78
2022-10-11T15:17:48.219Z,2.65
2022-10-11T15:20:22.055Z,2.90
2022-10-11T15:25:17.521Z,2.60
2022-10-11T15:27:44.888Z,2.90
2022-10-11T15:30:17.491Z,3.05
2022-10-11T15:32:45.666Z,2.58
2022-10-11T15:35:13.271Z,2.60
2022-10-11T15:37:40.508Z,3.05
2022-10-11T15:40:18.790Z,2.47
2022-10-11T15:42:46.839Z,2.40
2022-10-11T15:45:14.274Z,3.15
2022-10-11T15:47:41.208Z,2.58
2022-10-11T15:50:33.706Z,2.60
2022-10-11T15:53:01.819Z,2.28
2022-10-11T15:55:30.941Z,2.60
2022-10-11T15:57:58.031Z,2.78
2022-10-11T16:00:25.899Z,3.33
2022-10-11T16:02:53.351Z,3.10
2022-10-11T16:05:20.527Z,3.58
2022-10-11T16:07:47.309Z,2.80
2022-10-11T16:10:14.173Z,3.30
2022-10-11T16:12:42.496Z,3.40
2022-10-11T16:15:10.003Z,3.00
2022-10-11T16:17:37.358Z,3.05
2022-10-11T16:20:06.515Z,2.80
2022-10-11T16:22:33.639Z,2.80
2022-10-11T16:25:00.851Z,3.75
2022-10-11T16:27:28.006Z,3.35
2022-10-11T16:29:56.240Z,2.88
2022-10-11T16:32:24.278Z,3.40
2022-10-11T16:34:51.276Z,3.30
2022-10-11T16:37:18.034Z,3.78
2022-10-11T16:39:44.862Z,3.78
2022-10-11T16:42:11.669Z,3.88
2022-10-11T16:44:39.355Z,4.05
2022-10-11T16:47:07.609Z,3.92
2022-10-11T16:49:34.802Z,3.97
2022-10-11T16:52:04.018Z,4.07
2022-10-11T16:54:31.770Z,4.55
2022-10-11T16:56:59.470Z,3.95
2022-10-11T16:59:26.408Z,5.20
2022-10-11T17:01:53.323Z,4.55
2022-10-11T17:04:21.952Z,5.00
2022-10-11T17:06:48.804Z,5.18
2022-10-11T17:09:16.192Z,5.25
2022-10-11T17:11:43.383Z,4.65
2022-10-11T17:14:12.306Z,6.00
2022-10-11T17:16:39.539Z,5.13
2022-10-11T17:19:10.833Z,5.75
2022-10-11T17:21:39.112Z,6.72
2022-10-11T17:24:06.621Z,5.10
2022-10-11T17:26:34.661Z,6.07
2022-10-11T17:29:02.193Z,5.75
2022-10-11T17:31:29.977Z,5.50
2022-10-11T17:33:58.878Z,6.70
2022-10-11T17:36:30.522Z,5.97
2022-10-11T17:39:00.974Z,6.63
2022-10-11T17:41:31.793Z,5.50
2022-10-11T17:43:59.472Z,6.55
2022-10-11T17:46:28.129Z,5.57
2022-10-11T17:48:55.597Z,5.95
2022-10-11T17:51:22.742Z,5.72
2022-10-11T17:53:52.947Z,5.22
2022-10-11T17:56:27.834Z,6.38
2022-10-11T17:58:57.617Z,5.25
2022-10-11T18:01:26.059Z,5.53
2022-10-11T18:03:56.573Z,5.63
2022-10-11T18:06:25.163Z,5.03
2022-10-11T18:08:51.965Z,6.15
2022-10-11T18:11:21.062Z,6.30
2022-10-11T18:13:49.433Z,7.43
2022-10-11T18:16:18.200Z,9.25
2022-10-11T18:18:45.362Z,9.80
2022-10-11T18:21:12.726Z,12.50
2022-10-11T18:23:39.723Z,10.35
2022-10-11T18:26:11.913Z,8.80
2022-10-11T18:28:41.047Z,8.65
2022-10-11T18:31:13.015Z,7.13
2022-10-11T18:33:40.728Z,7.82
2022-10-11T18:36:09.412Z,8.73
2022-10-11T18:38:37.982Z,8.73
2022-10-11T18:41:06.359Z,8.68
2022-10-11T18:43:33.847Z,7.22
2022-10-11T18:46:07.732Z,7.88
2022-10-11T18:48:34.999Z,8.52
2022-10-11T18:51:04.355Z,8.55
2022-10-11T18:53:31.988Z,9.50
2022-10-11T18:55:59.930Z,9.00
2022-10-11T18:58:26.712Z,10.13
2022-10-11T19:00:53.676Z,9.05
2022-10-11T19:03:22.255Z,9.90
2022-10-11T19:05:49.088Z,10.73
2022-10-11T19:08:16.055Z,11.05
2022-10-11T19:10:42.822Z,9.65
2022-10-11T19:13:09.613Z,10.13
2022-10-11T19:15:36.409Z,9.48
2022-10-11T19:18:03.233Z,10.07
2022-10-11T19:20:31.341Z,10.02
2022-10-11T19:22:58.064Z,10.07
2022-10-11T19:25:24.970Z,10.48
2022-10-11T19:27:51.718Z,10.25
2022-10-11T19:30:18.579Z,9.65
2022-10-11T19:32:45.355Z,9.85
2022-10-11T19:35:15.241Z,9.60
2022-10-11T19:37:46.290Z,9.02
2022-10-11T19:40:13.239Z,10.73
2022-10-11T19:42:39.997Z,10.18
2022-10-11T19:45:07.944Z,10.40
2022-10-11T19:47:34.892Z,10.35
2022-10-11T19:50:01.752Z,9.98
2022-10-11T19:52:28.636Z,10.07
2022-10-11T19:54:56.722Z,9.93
2022-10-11T19:57:23.543Z,12.20
2022-10-11T19:59:50.502Z,12.65
2022-10-11T20:02:17.353Z,10.82
2022-10-11T20:04:52.727Z,11.93
2022-10-11T20:07:19.963Z,10.57
2022-10-11T20:09:46.704Z,10.38
2022-10-11T20:12:14.879Z,9.13
2022-10-11T20:14:41.600Z,9.68
2022-10-11T20:17:08.500Z,9.82
2022-10-11T20:19:35.295Z,13.02
2022-10-11T20:22:02.139Z,11.13
2022-10-11T20:24:33.359Z,10.75
2022-10-11T20:27:01.415Z,11.48
2022-10-11T20:29:29.629Z,11.73
2022-10-11T20:31:56.506Z,12.35
2022-10-11T20:34:23.488Z,12.52
2022-10-11T20:36:50.457Z,10.07
2022-10-11T20:39:17.937Z,11.15
2022-10-11T20:41:44.757Z,11.15
2022-10-11T20:44:13.124Z,11.75
2022-10-11T20:46:41.247Z,10.13
2022-10-11T20:49:09.823Z,10.45
2022-10-11T20:51:38.525Z,10.68
2022-10-11T20:54:05.853Z,10.18
2022-10-11T20:56:33.817Z,9.15
2022-10-11T20:59:01.038Z,9.35
2022-10-11T21:01:30.376Z,9.25
2022-10-11T21:03:59.574Z,11.07
2022-10-11T21:06:26.565Z,9.93
2022-10-11T21:08:54.370Z,11.32
2022-10-11T21:11:21.112Z,9.65
2022-10-11T21:13:47.872Z,10.80
2022-10-11T21:16:16.002Z,10.98
2022-10-11T21:18:43.101Z,10.45
2022-10-11T21:21:12.921Z,10.63
2022-10-11T21:23:40.331Z,11.35
2022-10-11T21:26:09.778Z,10.80
2022-10-11T21:28:37.101Z,11.35
2022-10-11T21:31:04.688Z,11.73
2022-10-11T21:33:31.845Z,12.02
2022-10-11T21:35:58.670Z,12.18
2022-10-11T21:38:27.124Z,12.82
2022-10-11T21:40:53.978Z,10.70
2022-10-11T21:43:20.874Z,11.75
2022-10-11T21:45:47.668Z,11.68
2022-10-11T21:48:14.453Z,10.95
2022-10-11T21:50:41.228Z,11.20
2022-10-11T21:53:08.058Z,10.43
2022-10-11T21:55:36.201Z,12.00
2022-10-11T21:58:03.007Z,10.35
2022-10-11T22:00:29.894Z,11.88
2022-10-11T22:02:56.639Z,11.50
2022-10-11T22:05:24.273Z,13.07
2022-10-11T22:07:51.032Z,13.13
2022-10-11T22:10:17.912Z,12.18
2022-10-11T22:12:46.270Z,12.32
2022-10-11T22:15:13.091Z,12.98
2022-10-11T22:17:39.892Z,12.75
2022-10-11T22:20:07.343Z,12.93
2022-10-11T22:22:34.601Z,11.27
2022-10-11T22:25:01.503Z,11.15
2022-10-11T22:27:28.271Z,11.55
2022-10-11T22:29:56.457Z,11.95
2022-10-11T22:32:23.208Z,12.77
2022-10-11T22:34:50.110Z,12.55
2022-10-11T22:37:16.919Z,11.73
2022-10-11T22:39:43.667Z,11.52
2022-10-11T22:42:10.443Z,11.85
2022-10-11T22:44:37.223Z,11.88
2022-10-11T22:47:05.331Z,11.65
2022-10-11T22:49:32.118Z,11.88
2022-10-11T22:51:59.123Z,13.88
2022-10-11T22:54:25.889Z,14.15
2022-10-11T22:56:52.846Z,14.27
2022-10-11T22:59:19.647Z,14.68
2022-10-11T23:01:46.402Z,15.13
2022-10-11T23:04:17.667Z,13.93
2022-10-11T23:06:44.485Z,13.88
2022-10-11T23:09:11.243Z,13.40
2022-10-11T23:11:38.004Z,14.85
2022-10-11T23:14:04.872Z,14.90
2022-10-11T23:16:31.658Z,14.52
2022-10-11T23:18:58.576Z,13.50
2022-10-11T23:21:27.176Z,13.52
2022-10-11T23:23:54.515Z,13.90
2022-10-11T23:26:21.780Z,14.55
2022-10-11T23:28:48.689Z,13.40
2022-10-11T23:31:17.709Z,13.00
2022-10-11T23:33:45.103Z,13.43
2022-10-11T23:36:15.874Z,13.07
2022-10-11T23:38:44.810Z,13.05
2022-10-11T23:41:11.715Z,12.32
2022-10-11T23:43:38.688Z,13.93
2022-10-11T23:46:05.626Z,13.00
2022-10-11T23:48:32.425Z,15.50
2022-10-11T23:50:59.174Z,13.68
2022-10-11T23:53:25.974Z,14.18
2022-10-11T23:55:54.166Z,13.57
2022-10-11T23:58:21.026Z,13.70
